Time;durP1;ratioP1;P1;durP2;ratioP2;P2;SDS_P1;SDS_P2;PMS_P1;PMS_P2;Temp;Humidity;BMP_temperature;BMP_pressure;BME280_temperature;BME280_humidity;BME280_pressure;Samples;Min_cycle;Max_cycle;Signal;HPM_P1;HPM_P2
2022/07/23 00:01:18;;;;;;;4.80;2.67;;;15.20;99.90;;;;;;5021040;28;20072;-68
2022/07/23 00:03:44;;;;;;;5.05;2.15;;;15.20;99.90;;;;;;5020754;28;20037;-69
2022/07/23 00:06:10;;;;;;;4.00;2.10;;;15.20;99.90;;;;;;5037135;28;20045;-69
2022/07/23 00:08:36;;;;;;;4.20;2.35;;;15.10;99.90;;;;;;5020273;28;20428;-69
2022/07/23 00:11:02;;;;;;;4.88;2.67;;;15.00;99.90;;;;;;5037309;28;20515;-68
2022/07/23 00:13:27;;;;;;;5.13;2.80;;;15.00;99.90;;;;;;5035385;28;20044;-69
2022/07/23 00:15:53;;;;;;;5.93;2.83;;;15.00;99.90;;;;;;5036641;28;20128;-69
2022/07/23 00:18:19;;;;;;;6.47;3.00;;;15.00;99.90;;;;;;5021127;28;20124;-69
2022/07/23 00:20:44;;;;;;;5.70;2.40;;;14.90;99.90;;;;;;5020993;28;20374;-69
2022/07/23 00:23:10;;;;;;;5.72;2.80;;;14.80;99.90;;;;;;5036949;28;20059;-69
2022/07/23 00:25:36;;;;;;;4.65;2.28;;;14.90;99.90;;;;;;5019794;28;20040;-69
2022/07/23 00:28:02;;;;;;;4.22;2.15;;;14.80;99.90;;;;;;5020769;28;20045;-69
2022/07/23 00:30:32;;;;;;;3.28;1.90;;;14.90;99.90;;;;;;5020532;28;20094;-69
2022/07/23 00:33:00;;;;;;;2.95;1.33;;;14.90;99.90;;;;;;5019753;28;20102;-69
2022/07/23 00:35:29;;;;;;;4.95;1.67;;;14.90;99.90;;;;;;5000992;28;20048;-69
2022/07/23 00:37:56;;;;;;;3.50;1.90;;;14.90;99.90;;;;;;5013133;28;20431;-69
2022/07/23 00:40:22;;;;;;;3.80;2.25;;;14.90;99.90;;;;;;5036371;28;20041;-69
2022/07/23 00:42:48;;;;;;;5.57;2.55;;;14.90;99.90;;;;;;5036255;28;20080;-69
2022/07/23 00:45:13;;;;;;;5.28;2.58;;;14.80;99.90;;;;;;5036846;28;20064;-69
2022/07/23 00:47:39;;;;;;;4.70;2.63;;;14.70;99.90;;;;;;5019622;28;20036;-69
2022/07/23 00:50:08;;;;;;;4.10;2.38;;;14.70;99.90;;;;;;5020084;28;20045;-69
2022/07/23 00:52:35;;;;;;;4.53;2.30;;;14.70;99.90;;;;;;5036666;28;20044;-69
2022/07/23 00:55:01;;;;;;;4.45;2.50;;;14.70;99.90;;;;;;5035577;28;20049;-69
2022/07/23 00:57:30;;;;;;;5.10;2.15;;;14.70;99.90;;;;;;5020394;28;20119;-69
2022/07/23 00:59:57;;;;;;;3.60;1.60;;;14.70;99.90;;;;;;5033745;28;20502;-69
2022/07/23 01:02:26;;;;;;;3.00;1.70;;;14.70;99.90;;;;;;5019963;28;20037;-69
2022/07/23 01:04:52;;;;;;;2.25;1.70;;;14.60;99.90;;;;;;5019103;28;20044;-69
2022/07/23 01:07:19;;;;;;;4.45;2.03;;;14.60;99.90;;;;;;5017323;28;20413;-69
2022/07/23 01:09:45;;;;;;;2.90;1.70;;;14.50;99.90;;;;;;5019219;28;20535;-69
2022/07/23 01:12:11;;;;;;;3.63;1.90;;;14.50;99.90;;;;;;5019463;28;20037;-69
2022/07/23 01:14:37;;;;;;;3.00;1.48;;;14.40;99.90;;;;;;5018018;28;20041;-69
2022/07/23 01:17:03;;;;;;;3.63;1.70;;;14.30;99.90;;;;;;5017912;28;20064;-70
2022/07/23 01:19:28;;;;;;;4.57;2.53;;;14.30;99.90;;;;;;5032225;28;20032;-69
2022/07/23 01:21:57;;;;;;;4.65;2.40;;;14.30;99.90;;;;;;5016154;28;20591;-69
2022/07/23 01:24:22;;;;;;;4.30;2.50;;;14.20;99.90;;;;;;5033780;28;20500;-69
2022/07/23 01:26:49;;;;;;;4.45;2.22;;;14.20;99.90;;;;;;5034601;28;20040;-69
2022/07/23 01:29:15;;;;;;;4.30;2.35;;;14.10;99.90;;;;;;5035092;28;20045;-69
2022/07/23 01:31:41;;;;;;;3.67;2.10;;;14.10;99.90;;;;;;5037504;28;20501;-69
2022/07/23 01:34:07;;;;;;;5.15;2.75;;;14.00;99.90;;;;;;5050530;28;20091;-69
2022/07/23 01:36:34;;;;;;;3.92;2.05;;;14.00;99.90;;;;;;5033505;28;20044;-69
2022/07/23 01:38:59;;;;;;;1.23;1.00;;;13.90;99.90;;;;;;5030708;28;20087;-69
2022/07/23 01:41:25;;;;;;;2.15;1.17;;;13.90;99.90;;;;;;5025549;28;20037;-68
2022/07/23 01:43:50;;;;;;;2.42;1.20;;;13.90;99.90;;;;;;5033823;28;20045;-69
2022/07/23 01:46:16;;;;;;;1.50;1.20;;;13.80;99.90;;;;;;5032203;28;20041;-69
2022/07/23 01:48:42;;;;;;;1.52;0.75;;;13.80;99.90;;;;;;5033559;28;20120;-69
2022/07/23 01:51:08;;;;;;;2.08;0.90;;;13.90;99.90;;;;;;5030901;28;20128;-69
2022/07/23 01:53:34;;;;;;;1.35;0.60;;;13.90;99.90;;;;;;5035798;28;20048;-68
2022/07/23 01:56:00;;;;;;;1.10;0.90;;;13.90;99.90;;;;;;5017010;28;20126;-68
2022/07/23 01:58:26;;;;;;;1.05;0.70;;;13.90;99.90;;;;;;5041266;28;20039;-69
2022/07/23 02:00:52;;;;;;;1.77;0.52;;;13.90;99.90;;;;;;5033197;28;20037;-69
2022/07/23 02:03:18;;;;;;;0.55;0.50;;;13.90;99.90;;;;;;5020699;28;20144;-69
2022/07/23 02:05:43;;;;;;;0.50;0.50;;;13.90;99.90;;;;;;5028516;28;20033;-69
2022/07/23 02:08:09;;;;;;;1.08;0.47;;;13.90;99.90;;;;;;5019758;28;20482;-69
2022/07/23 02:10:34;;;;;;;0.80;0.40;;;13.90;99.90;;;;;;5033924;28;20116;-69
2022/07/23 02:13:00;;;;;;;1.40;1.00;;;13.80;99.90;;;;;;5027845;28;20136;-69
2022/07/23 02:15:26;;;;;;;1.77;0.73;;;13.70;99.90;;;;;;5034442;28;20120;-69
2022/07/23 02:17:52;;;;;;;0.52;0.30;;;13.60;99.90;;;;;;5035126;28;20039;-69
2022/07/23 02:20:17;;;;;;;0.40;0.40;;;13.60;99.90;;;;;;5033942;28;20432;-69
2022/07/23 02:22:43;;;;;;;1.10;0.70;;;13.70;99.90;;;;;;5016097;28;20037;-68
2022/07/23 02:25:09;;;;;;;1.15;0.75;;;13.70;99.90;;;;;;5025939;28;20061;-69
2022/07/23 02:27:35;;;;;;;1.63;0.60;;;13.70;99.90;;;;;;5035956;28;20052;-68
2022/07/23 02:30:01;;;;;;;3.75;0.95;;;13.60;99.90;;;;;;5018652;28;20532;-69
2022/07/23 02:32:27;;;;;;;2.05;1.05;;;13.50;99.90;;;;;;5035559;28;20065;-69
2022/07/23 02:34:53;;;;;;;2.05;0.98;;;13.40;99.90;;;;;;5032909;28;20049;-69
2022/07/23 02:37:18;;;;;;;2.75;1.00;;;13.40;99.90;;;;;;5020245;28;20075;-69
2022/07/23 02:39:44;;;;;;;4.18;1.40;;;13.30;99.90;;;;;;5038006;28;20394;-69
2022/07/23 02:42:10;;;;;;;1.10;0.70;;;13.10;99.90;;;;;;5041197;28;20063;-69
2022/07/23 02:44:35;;;;;;;1.73;1.05;;;13.10;99.90;;;;;;5035573;28;20051;-69
2022/07/23 02:47:01;;;;;;;1.08;0.80;;;13.10;99.90;;;;;;5035101;28;20055;-69
2022/07/23 02:49:27;;;;;;;0.80;0.52;;;13.00;99.90;;;;;;5037243;28;20037;-69
2022/07/23 02:51:53;;;;;;;2.90;0.88;;;13.00;99.90;;;;;;5036833;28;20036;-69
2022/07/23 02:54:18;;;;;;;1.55;0.80;;;13.10;99.90;;;;;;5037336;28;20041;-69
2022/07/23 02:56:44;;;;;;;0.98;0.68;;;13.00;99.90;;;;;;5036344;28;20087;-68
2022/07/23 02:59:10;;;;;;;0.45;0.40;;;12.90;99.90;;;;;;5038311;28;20091;-68
2022/07/23 03:01:36;;;;;;;1.20;0.50;;;13.10;99.90;;;;;;5022402;28;20037;-69
2022/07/23 03:04:02;;;;;;;0.90;0.50;;;13.10;99.90;;;;;;5027302;28;20411;-68
2022/07/23 03:06:27;;;;;;;2.92;0.70;;;13.10;99.90;;;;;;5035209;28;20041;-68
2022/07/23 03:08:53;;;;;;;0.98;0.70;;;13.00;99.90;;;;;;5021702;28;20043;-69
2022/07/23 03:11:18;;;;;;;0.55;0.40;;;12.90;99.90;;;;;;5035552;28;20124;-68
2022/07/23 03:13:44;;;;;;;0.98;0.40;;;12.80;99.90;;;;;;5043797;28;20029;-69
2022/07/23 03:16:10;;;;;;;1.42;0.55;;;12.90;99.90;;;;;;5030628;28;20492;-68
2022/07/23 03:18:35;;;;;;;0.70;0.70;;;12.90;99.90;;;;;;5036260;28;20036;-69
2022/07/23 03:21:01;;;;;;;1.23;0.45;;;12.90;99.90;;;;;;5025636;28;20497;-69
2022/07/23 03:23:27;;;;;;;0.65;0.65;;;12.90;99.90;;;;;;5040699;28;20033;-69
2022/07/23 03:25:52;;;;;;;0.50;0.50;;;12.90;99.90;;;;;;5018662;28;21032;-69
2022/07/23 03:28:18;;;;;;;2.30;0.60;;;12.90;99.90;;;;;;5035351;28;20044;-69
2022/07/23 03:30:48;;;;;;;2.47;0.75;;;12.90;99.90;;;;;;5020939;28;20408;-68
2022/07/23 03:33:18;;;;;;;1.45;0.65;;;12.80;99.90;;;;;;5036988;28;20053;-68
2022/07/23 03:35:44;;;;;;;0.63;0.57;;;12.60;99.90;;;;;;5021097;28;20058;-68
2022/07/23 03:38:10;;;;;;;2.13;1.10;;;12.50;99.90;;;;;;5018434;28;20044;-68
2022/07/23 03:40:35;;;;;;;3.78;1.40;;;12.50;99.90;;;;;;5019528;28;20037;-68
2022/07/23 03:43:01;;;;;;;4.25;1.58;;;12.30;99.90;;;;;;5036083;28;20079;-68
2022/07/23 03:45:27;;;;;;;3.13;1.30;;;12.30;99.90;;;;;;5020684;28;20374;-68
2022/07/23 03:47:52;;;;;;;1.35;0.60;;;12.30;99.90;;;;;;5020396;28;20122;-68
2022/07/23 03:50:18;;;;;;;2.78;0.73;;;12.40;99.90;;;;;;5036329;28;20052;-68
2022/07/23 03:52:44;;;;;;;1.55;0.80;;;12.40;99.90;;;;;;5020006;28;20037;-68
2022/07/23 03:55:10;;;;;;;0.85;0.60;;;12.50;99.90;;;;;;5020194;28;20519;-68
2022/07/23 03:57:35;;;;;;;1.27;0.75;;;12.50;99.90;;;;;;5036590;28;20051;-68
2022/07/23 04:00:03;;;;;;;1.05;0.60;;;12.50;99.90;;;;;;5035814;28;20040;-68
2022/07/23 04:02:28;;;;;;;1.30;0.73;;;12.40;99.90;;;;;;5020049;28;20493;-68
2022/07/23 04:04:54;;;;;;;1.10;0.80;;;12.40;99.90;;;;;;5033260;28;20040;-68
2022/07/23 04:07:19;;;;;;;3.67;1.10;;;12.40;99.90;;;;;;5032612;28;20040;-68
2022/07/23 04:09:45;;;;;;;4.35;1.38;;;12.40;99.90;;;;;;5033400;28;20445;-69
2022/07/23 04:12:11;;;;;;;1.77;1.13;;;12.30;99.90;;;;;;5019397;28;20429;-68
2022/07/23 04:14:36;;;;;;;3.92;1.60;;;12.30;99.90;;;;;;5020087;28;20045;-68
2022/07/23 04:17:02;;;;;;;4.80;1.48;;;12.30;99.90;;;;;;5018988;28;20582;-68
2022/07/23 04:19:30;;;;;;;4.55;1.60;;;12.20;99.90;;;;;;5035930;28;20043;-68
2022/07/23 04:21:56;;;;;;;4.35;1.30;;;12.10;99.90;;;;;;5019923;28;20036;-68
2022/07/23 04:24:21;;;;;;;4.53;1.52;;;12.00;99.90;;;;;;5018391;28;20045;-68
2022/07/23 04:26:47;;;;;;;4.78;1.15;;;12.00;99.90;;;;;;5036258;28;20041;-68
2022/07/23 04:29:12;;;;;;;1.92;1.15;;;12.00;99.90;;;;;;5017715;28;20041;-68
2022/07/23 04:31:38;;;;;;;2.85;1.20;;;12.10;99.90;;;;;;5031950;28;20103;-68
2022/07/23 04:34:04;;;;;;;2.40;1.30;;;12.10;99.90;;;;;;5015675;28;20045;-68
2022/07/23 04:36:29;;;;;;;5.53;1.70;;;12.10;99.90;;;;;;5019260;28;20401;-68
2022/07/23 04:38:55;;;;;;;3.10;1.60;;;12.10;99.90;;;;;;5019602;28;20033;-68
2022/07/23 04:41:21;;;;;;;4.85;2.00;;;12.20;99.90;;;;;;5034916;28;20135;-68
2022/07/23 04:43:46;;;;;;;3.20;1.58;;;12.20;99.90;;;;;;5031400;28;20041;-68
2022/07/23 04:46:13;;;;;;;4.22;1.90;;;12.20;99.90;;;;;;5034263;28;20071;-68
2022/07/23 04:48:39;;;;;;;3.88;1.75;;;12.10;99.90;;;;;;5033696;28;20119;-68
2022/07/23 04:51:05;;;;;;;3.20;1.85;;;12.00;99.90;;;;;;5024488;28;20127;-68
2022/07/23 04:53:30;;;;;;;3.50;1.80;;;12.00;99.90;;;;;;5017367;28;20036;-68
2022/07/23 04:55:57;;;;;;;3.60;1.83;;;12.00;99.90;;;;;;5031339;28;20116;-68
2022/07/23 04:58:22;;;;;;;2.38;1.45;;;12.00;99.90;;;;;;5033751;28;20065;-68
2022/07/23 05:00:48;;;;;;;4.32;2.00;;;12.10;99.90;;;;;;5034781;28;20080;-68
2022/07/23 05:03:13;;;;;;;6.78;2.03;;;12.20;99.90;;;;;;5018174;28;20045;-68
2022/07/23 05:05:39;;;;;;;4.68;1.98;;;12.20;99.90;;;;;;5036389;28;20042;-69
2022/07/23 05:08:05;;;;;;;4.38;2.03;;;12.20;99.90;;;;;;5035440;28;20037;-68
2022/07/23 05:10:30;;;;;;;5.82;2.50;;;12.20;99.90;;;;;;5007883;28;20057;-69
2022/07/23 05:12:56;;;;;;;3.33;1.70;;;12.20;99.90;;;;;;5031740;28;20062;-68
2022/07/23 05:15:23;;;;;;;5.53;2.00;;;12.20;99.90;;;;;;5018881;28;20138;-68
2022/07/23 05:17:49;;;;;;;4.10;2.40;;;12.20;99.90;;;;;;5016992;28;20539;-68
2022/07/23 05:20:14;;;;;;;5.53;2.60;;;12.20;99.90;;;;;;5035220;28;20036;-68
2022/07/23 05:22:40;;;;;;;5.80;3.05;;;12.20;99.90;;;;;;5034368;28;20039;-68
2022/07/23 05:25:06;;;;;;;5.70;3.20;;;12.20;99.90;;;;;;5019352;28;20045;-68
2022/07/23 05:27:31;;;;;;;7.35;3.50;;;12.20;99.90;;;;;;5034138;28;20076;-68
2022/07/23 05:29:57;;;;;;;6.57;3.25;;;12.30;99.90;;;;;;5035090;28;20083;-68
2022/07/23 05:32:23;;;;;;;8.43;3.83;;;12.40;99.90;;;;;;5033920;28;20057;-68
2022/07/23 05:34:49;;;;;;;7.78;3.83;;;12.60;99.90;;;;;;5018692;28;20063;-68
2022/07/23 05:37:15;;;;;;;8.25;4.40;;;12.70;99.90;;;;;;5033406;28;20075;-68
2022/07/23 05:39:41;;;;;;;7.90;4.20;;;12.70;99.90;;;;;;5034774;28;20115;-68
2022/07/23 05:42:07;;;;;;;9.80;4.60;;;12.90;99.90;;;;;;5032821;28;20555;-68
2022/07/23 05:44:33;;;;;;;9.73;4.68;;;13.10;99.90;;;;;;5021515;28;20044;-68
2022/07/23 05:46:58;;;;;;;9.35;4.80;;;13.30;99.90;;;;;;5010227;28;20478;-68
2022/07/23 05:49:24;;;;;;;9.68;5.05;;;13.40;99.90;;;;;;5033848;28;20025;-68
2022/07/23 05:51:50;;;;;;;6.93;4.25;;;13.60;99.90;;;;;;5032134;28;20497;-68
2022/07/23 05:54:16;;;;;;;9.15;4.40;;;13.60;99.90;;;;;;5034668;28;20045;-68
2022/07/23 05:56:41;;;;;;;8.88;4.25;;;13.80;99.90;;;;;;5033602;28;20032;-69
2022/07/23 05:59:07;;;;;;;8.30;4.72;;;13.80;99.90;;;;;;5032344;28;20489;-68
2022/07/23 06:01:33;;;;;;;9.10;4.53;;;13.90;99.90;;;;;;5014839;28;20069;-68
2022/07/23 06:03:58;;;;;;;8.55;4.07;;;14.10;99.90;;;;;;5016736;28;20045;-68
2022/07/23 06:06:24;;;;;;;8.00;3.92;;;14.30;99.90;;;;;;5032059;28;20037;-68
2022/07/23 06:08:49;;;;;;;9.07;3.85;;;14.50;99.90;;;;;;5018464;28;20060;-68
2022/07/23 06:11:15;;;;;;;6.78;3.35;;;14.60;99.90;;;;;;5034158;28;20048;-68
2022/07/23 06:13:40;;;;;;;10.63;3.70;;;14.70;99.90;;;;;;5014618;28;20509;-68
2022/07/23 06:16:06;;;;;;;6.20;3.40;;;14.90;99.90;;;;;;5014845;28;20036;-68
2022/07/23 06:18:31;;;;;;;7.05;3.28;;;15.00;99.90;;;;;;5021005;28;20037;-68
2022/07/23 06:20:57;;;;;;;7.15;3.10;;;15.10;99.90;;;;;;5026213;28;20044;-69
2022/07/23 06:23:23;;;;;;;8.73;3.30;;;15.30;99.90;;;;;;5033604;28;20044;-68
2022/07/23 06:25:48;;;;;;;7.53;3.25;;;15.40;99.90;;;;;;5034240;28;20033;-68
2022/07/23 06:28:14;;;;;;;5.43;3.00;;;15.50;99.90;;;;;;5034058;28;20409;-68
2022/07/23 06:30:39;;;;;;;5.65;2.90;;;15.60;99.90;;;;;;5034096;28;20400;-68
2022/07/23 06:33:05;;;;;;;5.80;2.70;;;15.70;99.90;;;;;;5014058;28;20049;-69
2022/07/23 06:35:31;;;;;;;5.82;2.67;;;15.80;99.90;;;;;;5035021;28;20128;-68
2022/07/23 06:37:56;;;;;;;7.05;2.88;;;15.90;99.90;;;;;;5023728;28;20088;-68
2022/07/23 06:40:22;;;;;;;6.25;2.75;;;16.00;99.90;;;;;;5032387;28;20052;-69
2022/07/23 06:42:47;;;;;;;4.93;2.50;;;16.10;99.90;;;;;;5029802;28;20124;-69
2022/07/23 06:45:13;;;;;;;5.82;2.53;;;16.10;99.90;;;;;;5019939;28;20033;-69
2022/07/23 06:47:40;;;;;;;5.75;2.42;;;16.30;99.90;;;;;;5013903;28;20041;-69
2022/07/23 06:50:06;;;;;;;4.10;1.90;;;16.30;99.90;;;;;;5034622;28;20560;-68
2022/07/23 06:52:31;;;;;;;5.35;1.90;;;16.50;99.90;;;;;;5017703;28;20086;-69
2022/07/23 06:54:57;;;;;;;3.38;1.88;;;16.50;99.90;;;;;;5031587;28;20029;-68
2022/07/23 06:57:25;;;;;;;4.93;1.80;;;16.60;99.90;;;;;;5034327;28;20182;-69
2022/07/23 06:59:51;;;;;;;4.32;2.00;;;16.60;99.90;;;;;;5051158;28;20048;-69
2022/07/23 07:02:16;;;;;;;4.72;1.40;;;16.80;99.90;;;;;;5050413;28;20037;-69
2022/07/23 07:04:42;;;;;;;6.53;1.60;;;16.80;99.90;;;;;;5050216;28;20041;-69
2022/07/23 07:07:08;;;;;;;2.13;1.30;;;16.90;99.90;;;;;;5034894;28;20087;-69
2022/07/23 07:09:33;;;;;;;5.85;1.60;;;17.00;99.90;;;;;;5050333;28;20386;-69
2022/07/23 07:11:59;;;;;;;4.03;1.50;;;17.00;99.90;;;;;;5034680;28;20409;-69
2022/07/23 07:14:25;;;;;;;3.28;1.50;;;17.10;99.90;;;;;;5033599;28;20127;-71
2022/07/23 07:16:50;;;;;;;3.88;1.70;;;17.20;99.90;;;;;;5053445;28;20033;-70
2022/07/23 07:19:16;;;;;;;3.92;1.60;;;17.20;99.90;;;;;;5038337;28;20045;-68
2022/07/23 07:21:41;;;;;;;3.00;1.80;;;17.30;99.90;;;;;;5054284;28;20035;-69
2022/07/23 07:24:07;;;;;;;4.22;1.60;;;17.30;99.90;;;;;;5054556;28;20041;-69
2022/07/23 07:26:33;;;;;;;5.25;1.35;;;17.40;99.90;;;;;;5036786;28;20493;-69
2022/07/23 07:28:58;;;;;;;3.80;1.50;;;17.30;99.90;;;;;;5037326;28;20508;-69
2022/07/23 07:31:24;;;;;;;4.05;1.48;;;17.40;99.90;;;;;;5038101;28;20490;-69
2022/07/23 07:33:50;;;;;;;2.53;1.35;;;17.40;99.90;;;;;;5020573;28;20037;-69
2022/07/23 07:36:15;;;;;;;4.65;1.30;;;17.50;99.90;;;;;;5021050;28;20033;-69
2022/07/23 07:38:41;;;;;;;2.05;1.00;;;17.50;99.90;;;;;;5033886;28;20068;-69
2022/07/23 07:41:07;;;;;;;0.98;0.77;;;17.60;99.90;;;;;;5036138;28;20043;-69
2022/07/23 07:43:33;;;;;;;2.33;0.88;;;17.60;99.90;;;;;;5021548;28;20528;-69
2022/07/23 07:45:59;;;;;;;1.95;0.90;;;17.50;99.90;;;;;;5021733;28;20158;-69
2022/07/23 07:48:24;;;;;;;1.90;0.82;;;17.50;99.90;;;;;;5037288;28;20067;-69
2022/07/23 07:50:50;;;;;;;1.13;0.80;;;17.50;99.90;;;;;;5034790;28;20041;-74
2022/07/23 07:53:15;;;;;;;2.58;0.90;;;17.50;99.90;;;;;;5029919;28;20539;-69
2022/07/23 07:55:41;;;;;;;2.35;0.90;;;17.40;99.90;;;;;;5036057;28;20542;-69
2022/07/23 07:58:06;;;;;;;1.85;0.82;;;17.50;99.90;;;;;;5019459;28;20025;-69
2022/07/23 08:00:32;;;;;;;3.80;1.08;;;17.50;99.90;;;;;;5020764;28;20041;-69
2022/07/23 08:02:58;;;;;;;2.67;1.10;;;17.70;99.90;;;;;;5026041;28;20043;-69
2022/07/23 08:05:26;;;;;;;3.33;0.80;;;17.90;99.90;;;;;;5019602;28;20037;-69
2022/07/23 08:07:52;;;;;;;3.08;0.70;;;18.20;99.90;;;;;;5017684;28;20088;-69
2022/07/23 08:10:18;;;;;;;1.55;0.88;;;18.30;99.90;;;;;;5035727;28;20040;-70
2022/07/23 08:12:49;;;;;;;2.72;0.82;;;18.30;99.90;;;;;;5009493;28;20037;-69
2022/07/23 08:15:19;;;;;;;0.67;0.67;;;18.30;99.90;;;;;;5034611;28;20045;-69
2022/07/23 08:17:46;;;;;;;1.33;0.75;;;18.40;99.90;;;;;;5017939;28;20799;-69
2022/07/23 08:20:13;;;;;;;3.30;0.80;;;18.40;99.90;;;;;;5027090;28;20049;-69
2022/07/23 08:22:51;;;;;;;2.47;0.63;;;18.60;99.90;;;;;;5010171;28;20036;-69
2022/07/23 08:25:24;;;;;;;1.02;0.60;;;18.60;99.90;;;;;;5019763;28;20397;-69
2022/07/23 08:27:50;;;;;;;2.88;0.80;;;18.70;99.90;;;;;;5018020;28;20076;-69
2022/07/23 08:30:17;;;;;;;1.45;0.65;;;19.00;99.90;;;;;;5036880;28;20041;-70
2022/07/23 08:32:48;;;;;;;1.90;0.70;;;19.00;99.90;;;;;;5033577;28;20057;-69
2022/07/23 08:35:14;;;;;;;2.13;0.70;;;19.00;99.90;;;;;;5033106;28;20049;-69
2022/07/23 08:37:40;;;;;;;2.15;0.85;;;18.90;99.90;;;;;;5035334;28;20051;-70
2022/07/23 08:40:06;;;;;;;1.48;0.70;;;18.90;99.90;;;;;;5020345;28;20043;-70
2022/07/23 08:42:35;;;;;;;2.35;1.02;;;19.00;99.90;;;;;;5034781;28;20076;-69
2022/07/23 08:45:02;;;;;;;1.88;0.80;;;19.10;99.90;;;;;;5035912;28;20141;-70
2022/07/23 08:47:29;;;;;;;2.85;0.80;;;19.10;99.90;;;;;;5013350;28;20614;-70
2022/07/23 08:49:58;;;;;;;0.70;0.70;;;18.90;99.90;;;;;;5019955;28;20481;-70
2022/07/23 08:52:24;;;;;;;4.00;0.93;;;18.80;99.90;;;;;;5018397;28;20434;-69
2022/07/23 08:54:51;;;;;;;1.70;0.70;;;18.90;99.90;;;;;;5036713;28;20045;-70
2022/07/23 08:57:16;;;;;;;1.10;0.70;;;19.00;99.90;;;;;;5029747;28;20485;-69
2022/07/23 08:59:42;;;;;;;1.48;0.70;;;19.00;99.90;;;;;;5027553;28;20040;-70
2022/07/23 09:02:08;;;;;;;1.65;0.80;;;19.10;99.90;;;;;;5033897;28;20498;-70
2022/07/23 09:04:34;;;;;;;1.00;0.60;;;19.00;99.90;;;;;;5035133;28;20072;-70
2022/07/23 09:07:01;;;;;;;1.33;0.80;;;18.90;99.90;;;;;;5033504;28;20032;-70
2022/07/23 09:09:29;;;;;;;2.72;0.80;;;18.90;99.90;;;;;;5034043;28;20052;-69
2022/07/23 09:12:10;;;;;;;2.97;0.75;;;19.00;99.90;;;;;;5048887;28;20056;-70
2022/07/23 09:14:37;;;;;;;3.78;0.80;;;19.10;99.90;;;;;;5052497;28;20045;-70
2022/07/23 09:17:15;;;;;;;1.98;0.75;;;19.20;99.90;;;;;;5017566;28;20040;-70
2022/07/23 09:19:42;;;;;;;3.65;0.80;;;19.30;99.90;;;;;;5033780;28;20052;-70
2022/07/23 09:22:28;;;;;;;1.77;0.77;;;19.20;99.90;;;;;;5018298;28;20184;-70
2022/07/23 09:25:09;;;;;;;4.32;1.08;;;19.20;99.90;;;;;;5017815;28;20044;-69
2022/07/23 09:27:55;;;;;;;1.20;0.70;;;19.20;99.90;;;;;;5042660;28;20155;-70
2022/07/23 09:30:27;;;;;;;3.22;0.90;;;19.30;99.90;;;;;;5015893;28;20067;-70
2022/07/23 09:33:13;;;;;;;1.02;0.70;;;19.30;99.90;;;;;;5033873;28;20140;-70
2022/07/23 09:35:50;;;;;;;1.70;0.70;;;19.40;99.90;;;;;;5030215;28;20037;-70
2022/07/23 09:38:17;;;;;;;2.33;0.90;;;19.40;99.90;;;;;;5001367;28;20049;-70
2022/07/23 09:40:44;;;;;;;1.70;0.82;;;19.40;99.90;;;;;;5027402;28;20378;-70
2022/07/23 09:43:10;;;;;;;3.90;1.00;;;19.50;99.90;;;;;;5017840;28;20124;-70
2022/07/23 09:45:35;;;;;;;2.90;0.88;;;19.40;99.90;;;;;;5017251;28;20457;-70
2022/07/23 09:48:15;;;;;;;1.75;0.80;;;19.40;99.90;;;;;;5016591;28;20579;-70
2022/07/23 09:50:42;;;;;;;1.85;0.75;;;19.50;99.90;;;;;;5034521;28;20047;-70
2022/07/23 09:53:08;;;;;;;3.47;1.10;;;19.60;99.90;;;;;;5017453;28;20043;-70
2022/07/23 09:55:36;;;;;;;2.63;1.20;;;19.70;99.90;;;;;;5032972;28;20037;-70
2022/07/23 09:58:03;;;;;;;1.40;0.90;;;19.70;99.90;;;;;;5017381;28;20036;-70
2022/07/23 10:00:30;;;;;;;4.50;1.13;;;19.70;99.90;;;;;;5024307;28;20397;-70
2022/07/23 10:02:57;;;;;;;1.90;0.90;;;19.80;99.90;;;;;;5016261;28;20037;-70
2022/07/23 10:05:25;;;;;;;2.38;1.00;;;19.60;99.90;;;;;;5016315;28;20053;-70
2022/07/23 10:07:51;;;;;;;1.30;0.90;;;19.70;99.90;;;;;;5027381;28;20037;-70
2022/07/23 10:10:17;;;;;;;2.20;0.68;;;19.70;99.90;;;;;;5010373;28;20127;-70
2022/07/23 10:15:25;;;;;;;1.70;0.90;;;19.60;99.90;;;;;;5030118;28;20048;-70
2022/07/23 10:17:51;;;;;;;1.40;0.93;;;19.50;99.90;;;;;;5016364;28;20047;-70
2022/07/23 10:20:17;;;;;;;4.03;1.02;;;19.60;99.90;;;;;;5013957;28;20033;-70
2022/07/23 10:22:58;;;;;;;3.17;1.00;;;19.60;99.90;;;;;;5032731;28;20033;-70
2022/07/23 10:25:32;;;;;;;1.63;0.93;;;19.70;99.90;;;;;;5016811;28;20123;-70
2022/07/23 10:28:08;;;;;;;4.38;0.98;;;19.80;99.90;;;;;;5034027;28;20076;-70
2022/07/23 10:30:51;;;;;;;1.85;0.90;;;19.80;99.90;;;;;;5031763;28;20041;-70
2022/07/23 10:33:48;;;;;;;3.22;0.90;;;19.80;99.90;;;;;;5003344;28;20037;-70
2022/07/23 10:36:40;;;;;;;2.67;1.20;;;19.80;99.90;;;;;;5023000;28;20037;-73
2022/07/23 10:39:17;;;;;;;2.75;1.10;;;19.80;99.90;;;;;;5031078;28;20056;-70
2022/07/23 10:41:43;;;;;;;3.75;1.20;;;19.70;99.90;;;;;;5024248;28;20486;-70
2022/07/23 10:44:22;;;;;;;3.78;1.17;;;19.60;99.90;;;;;;5018042;28;20036;-70
2022/07/23 10:49:33;;;;;;;2.63;0.95;;;19.50;99.90;;;;;;5034364;28;20071;-70
2022/07/23 10:52:19;;;;;;;3.55;1.10;;;19.50;99.90;;;;;;5036873;28;20036;-70
2022/07/23 10:55:15;;;;;;;3.25;1.20;;;19.60;99.90;;;;;;5021571;28;20516;-70
2022/07/23 10:57:51;;;;;;;4.68;1.20;;;19.60;99.90;;;;;;5036195;28;20823;-71
2022/07/23 11:00:22;;;;;;;2.60;1.10;;;19.60;99.90;;;;;;5042458;28;20029;-71
2022/07/23 11:02:50;;;;;;;2.53;1.30;;;19.60;99.90;;;;;;5054213;28;20037;-71
2022/07/23 11:05:19;;;;;;;2.92;1.08;;;19.50;99.90;;;;;;5037542;28;20435;-71
2022/07/23 11:08:03;;;;;;;2.58;1.13;;;19.50;99.90;;;;;;5033201;28;20040;-71
2022/07/23 11:10:49;;;;;;;3.05;1.25;;;19.50;99.90;;;;;;5034539;28;20583;-71
2022/07/23 11:13:21;;;;;;;2.55;1.20;;;19.50;99.90;;;;;;5036503;28;20174;-71
2022/07/23 11:16:02;;;;;;;2.15;1.40;;;19.60;99.90;;;;;;5037027;28;20485;-71
2022/07/23 11:18:43;;;;;;;2.50;1.30;;;19.70;99.90;;;;;;5027971;28;20041;-71
2022/07/23 11:21:26;;;;;;;2.22;1.05;;;19.60;99.90;;;;;;5036710;28;20059;-71
2022/07/23 11:24:04;;;;;;;3.05;1.17;;;19.60;99.90;;;;;;5020973;28;20104;-70
2022/07/23 11:26:46;;;;;;;3.28;1.30;;;19.60;99.90;;;;;;5019706;28;20049;-69
2022/07/23 11:29:36;;;;;;;2.35;1.20;;;19.60;99.90;;;;;;5021449;28;20041;-69
2022/07/23 11:32:22;;;;;;;2.38;1.05;;;19.70;99.90;;;;;;5033327;28;20067;-69
2022/07/23 11:34:49;;;;;;;2.85;1.20;;;19.80;99.90;;;;;;5032366;28;20077;-69
2022/07/23 11:37:29;;;;;;;3.70;1.15;;;19.80;99.90;;;;;;5017737;28;20038;-69
2022/07/23 11:39:55;;;;;;;4.53;1.27;;;20.00;99.90;;;;;;5035980;28;20397;-69
2022/07/23 11:42:21;;;;;;;3.50;1.48;;;20.10;99.90;;;;;;5036545;28;20044;-69
2022/07/23 11:44:48;;;;;;;3.05;1.30;;;20.20;99.90;;;;;;5033868;28;20064;-69
2022/07/23 11:47:13;;;;;;;4.20;1.42;;;20.20;99.90;;;;;;5018996;28;20040;-69
2022/07/23 11:49:51;;;;;;;3.10;1.30;;;20.20;99.90;;;;;;5036387;28;20036;-69
2022/07/23 11:52:17;;;;;;;2.75;1.30;;;20.20;99.90;;;;;;5035811;28;20041;-69
2022/07/23 11:54:52;;;;;;;3.85;1.30;;;20.20;99.90;;;;;;5035481;28;20079;-69
2022/07/23 11:57:19;;;;;;;1.70;1.20;;;20.30;99.90;;;;;;5036117;28;20037;-69
2022/07/23 11:59:49;;;;;;;2.58;1.10;;;20.30;99.90;;;;;;5034903;28;20036;-69
2022/07/23 12:02:15;;;;;;;3.15;1.10;;;20.30;99.90;;;;;;5018210;28;20048;-69
2022/07/23 12:04:45;;;;;;;3.85;1.40;;;20.30;99.90;;;;;;5033900;28;20507;-69
2022/07/23 12:07:29;;;;;;;3.05;1.20;;;20.40;99.90;;;;;;5032555;28;20455;-69
2022/07/23 12:09:57;;;;;;;3.97;1.38;;;20.50;99.90;;;;;;5034378;28;20535;-69
2022/07/23 12:12:23;;;;;;;4.30;1.25;;;20.50;99.90;;;;;;5017012;28;20040;-69
2022/07/23 12:14:57;;;;;;;3.33;1.30;;;20.50;99.90;;;;;;5033867;28;20041;-69
2022/07/23 12:17:32;;;;;;;1.88;1.20;;;20.40;99.90;;;;;;5011802;28;20583;-69
2022/07/23 12:19:59;;;;;;;3.28;1.20;;;20.40;99.90;;;;;;5028717;28;20500;-69
2022/07/23 12:22:32;;;;;;;5.00;1.60;;;20.40;99.90;;;;;;5005195;28;20096;-69
2022/07/23 12:25:07;;;;;;;3.75;1.50;;;20.40;99.90;;;;;;5026418;28;20040;-69
2022/07/23 12:27:33;;;;;;;4.35;1.38;;;20.40;99.90;;;;;;5035100;28;20497;-69
2022/07/23 12:30:14;;;;;;;4.65;1.50;;;20.40;99.90;;;;;;5032821;28;20087;-69
2022/07/23 12:32:46;;;;;;;3.50;1.40;;;20.30;99.90;;;;;;5032742;28;20417;-69
2022/07/23 12:35:13;;;;;;;4.88;1.60;;;20.30;99.90;;;;;;5006345;28;20049;-69
2022/07/23 12:37:41;;;;;;;2.83;1.52;;;20.30;99.90;;;;;;5007232;28;20033;-69
2022/07/23 12:40:29;;;;;;;3.65;1.40;;;20.40;99.90;;;;;;5034923;28;20037;-69
2022/07/23 12:43:01;;;;;;;2.97;1.48;;;20.50;99.90;;;;;;5025626;28;20033;-69
2022/07/23 12:45:41;;;;;;;2.65;1.50;;;20.40;99.90;;;;;;5035845;28;20055;-69
2022/07/23 12:48:07;;;;;;;5.50;1.95;;;20.50;99.90;;;;;;5015654;28;20087;-69
2022/07/23 12:50:39;;;;;;;3.50;1.60;;;20.50;99.90;;;;;;5018572;28;20442;-69
2022/07/23 12:53:14;;;;;;;3.72;1.60;;;20.60;99.90;;;;;;5032795;28;20083;-69
2022/07/23 12:55:40;;;;;;;2.10;1.30;;;20.70;99.90;;;;;;5035139;28;20045;-69
2022/07/23 12:58:11;;;;;;;5.85;1.50;;;20.70;99.90;;;;;;5035634;28;20028;-69